createdAt,value
2023-02-20T00:01:48.075Z,10.60
2023-02-20T00:04:17.891Z,10.60
2023-02-20T00:06:46.406Z,10.60
2023-02-20T00:09:14.724Z,10.50
2023-02-20T00:11:43.509Z,10.60
2023-02-20T00:14:11.828Z,10.60
2023-02-20T00:16:40.368Z,10.50
2023-02-20T00:19:08.714Z,10.50
2023-02-20T00:21:38.304Z,10.50
2023-02-20T00:24:07.007Z,10.50
2023-02-20T00:26:35.715Z,10.50
2023-02-20T00:29:04.630Z,10.50
2023-02-20T00:31:32.871Z,10.50
2023-02-20T00:34:04.370Z,10.30
2023-02-20T00:36:32.659Z,10.50
2023-02-20T00:39:02.542Z,10.50
2023-02-20T00:41:30.838Z,10.40
2023-02-20T00:44:00.098Z,10.40
2023-02-20T00:46:28.542Z,10.40
2023-02-20T00:48:56.925Z,10.40
2023-02-20T00:51:43.717Z,10.40
2023-02-20T00:54:14.755Z,10.40
2023-02-20T00:56:43.001Z,10.40
2023-02-20T00:59:11.398Z,10.40
2023-02-20T01:01:39.714Z,10.40
2023-02-20T01:04:08.187Z,10.40
2023-02-20T01:06:36.896Z,10.40
2023-02-20T01:09:05.603Z,10.40
2023-02-20T01:11:35.338Z,10.40
2023-02-20T01:14:03.899Z,10.40
2023-02-20T01:16:32.334Z,10.40
2023-02-20T01:19:01.006Z,10.40
2023-02-20T01:21:29.967Z,10.40
2023-02-20T01:23:58.434Z,10.40
2023-02-20T01:26:26.977Z,10.40
2023-02-20T01:28:56.806Z,10.40
2023-02-20T01:31:26.045Z,10.40
2023-02-20T01:33:54.840Z,10.40
2023-02-20T01:36:23.502Z,10.40
2023-02-20T01:38:52.112Z,10.40
2023-02-20T01:41:23.468Z,10.40
2023-02-20T01:43:51.848Z,10.40
2023-02-20T01:46:56.596Z,10.40
2023-02-20T01:49:33.451Z,10.40
2023-02-20T01:52:08.933Z,10.40
2023-02-20T01:54:39.512Z,10.40
2023-02-20T01:57:10.777Z,10.40
2023-02-20T01:59:43.089Z,10.40
2023-02-20T02:02:13.350Z,10.40
2023-02-20T02:04:45.007Z,10.50
2023-02-20T02:07:13.695Z,10.40
2023-02-20T02:09:48.745Z,10.40
2023-02-20T02:12:17.389Z,10.40
2023-02-20T02:14:46.127Z,10.70
2023-02-20T02:17:47.082Z,10.50
2023-02-20T02:20:50.413Z,10.40
2023-02-20T02:23:55.903Z,10.40
2023-02-20T02:26:51.275Z,10.40
2023-02-20T02:29:46.573Z,10.40
2023-02-20T02:32:48.606Z,10.40
2023-02-20T02:35:44.976Z,10.40
2023-02-20T02:38:22.575Z,10.40
2023-02-20T02:40:58.935Z,10.40
2023-02-20T02:43:33.771Z,10.40
2023-02-20T02:46:09.066Z,10.40
2023-02-20T02:48:41.448Z,10.40
2023-02-20T02:51:14.847Z,10.40
2023-02-20T02:54:05.060Z,10.40
2023-02-20T02:56:36.850Z,10.40
2023-02-20T02:59:08.307Z,10.40
2023-02-20T03:01:41.038Z,10.40
2023-02-20T03:04:13.625Z,10.40
2023-02-20T03:06:46.125Z,10.40
2023-02-20T03:09:20.692Z,10.40
2023-02-20T03:11:51.969Z,10.40
2023-02-20T03:14:46.492Z,10.40
2023-02-20T03:17:19.608Z,10.40
2023-02-20T03:19:49.399Z,10.40
2023-02-20T03:22:20.717Z,10.40
2023-02-20T03:24:59.629Z,10.40
2023-02-20T03:27:39.885Z,10.40
2023-02-20T03:30:17.018Z,10.40
2023-02-20T03:33:05.853Z,10.40
2023-02-20T03:35:56.960Z,10.40
2023-02-20T03:38:44.130Z,10.30
2023-02-20T03:41:34.357Z,10.30
2023-02-20T03:44:07.716Z,10.30
2023-02-20T03:46:39.621Z,10.10
2023-02-20T03:49:29.862Z,10.70
2023-02-20T03:51:59.676Z,10.50
2023-02-20T03:54:37.370Z,10.30
2023-02-20T03:57:12.309Z,10.30
2023-02-20T03:59:46.034Z,10.20
2023-02-20T04:02:24.238Z,10.30
2023-02-20T04:04:57.046Z,10.20
2023-02-20T04:07:31.964Z,10.20
2023-02-20T04:10:07.010Z,10.20
2023-02-20T04:12:41.080Z,10.20
2023-02-20T04:15:11.134Z,10.20
2023-02-20T04:17:45.545Z,10.20
2023-02-20T04:20:16.529Z,10.20
2023-02-20T04:22:57.939Z,10.20
2023-02-20T04:25:35.603Z,10.20
2023-02-20T04:28:10.561Z,10.20
2023-02-20T04:30:55.049Z,10.20
2023-02-20T04:33:24.681Z,10.20
2023-02-20T04:35:58.483Z,10.20
2023-02-20T04:38:27.631Z,10.20
2023-02-20T04:40:57.103Z,10.20
2023-02-20T04:43:27.451Z,10.20
2023-02-20T04:45:58.194Z,10.20
2023-02-20T04:48:26.620Z,10.20
2023-02-20T04:50:55.149Z,10.20
2023-02-20T04:53:23.607Z,10.20
2023-02-20T04:55:52.020Z,10.20
2023-02-20T04:58:23.770Z,10.20
2023-02-20T05:00:57.525Z,10.20
2023-02-20T05:03:25.980Z,10.20
2023-02-20T05:05:54.430Z,10.20
2023-02-20T05:08:22.737Z,10.20
2023-02-20T05:10:51.278Z,10.20
2023-02-20T05:13:19.631Z,10.20
2023-02-20T05:15:47.998Z,10.10
2023-02-20T05:18:25.656Z,10.20
2023-02-20T05:21:10.458Z,10.20
2023-02-20T05:23:40.901Z,10.20
2023-02-20T05:26:10.941Z,10.20
2023-02-20T05:28:40.747Z,10.10
2023-02-20T05:31:09.746Z,10.10
2023-02-20T05:33:39.612Z,10.10
2023-02-20T05:36:12.462Z,10.00
2023-02-20T05:38:41.832Z,10.40
2023-02-20T05:41:11.441Z,10.00
2023-02-20T05:43:41.457Z,10.00
2023-02-20T05:46:12.144Z,10.00
2023-02-20T05:48:45.709Z,10.00
2023-02-20T05:51:22.423Z,9.80
2023-02-20T05:53:53.095Z,10.00
2023-02-20T05:56:22.839Z,10.00
2023-02-20T05:58:53.318Z,10.10
2023-02-20T06:01:24.298Z,10.00
2023-02-20T06:03:55.111Z,10.00
2023-02-20T06:06:24.613Z,10.00
2023-02-20T06:08:55.600Z,10.00
2023-02-20T06:11:24.245Z,10.00
2023-02-20T06:13:53.548Z,10.00
2023-02-20T06:16:28.403Z,10.00
2023-02-20T06:19:04.901Z,10.00
2023-02-20T06:21:35.913Z,10.00
2023-02-20T06:24:09.468Z,10.00
2023-02-20T06:26:52.306Z,10.00
2023-02-20T06:29:23.751Z,10.00
2023-02-20T06:31:55.888Z,9.90
2023-02-20T06:34:33.203Z,9.90
2023-02-20T06:37:04.089Z,9.90
2023-02-20T06:39:33.780Z,9.90
2023-02-20T06:42:04.414Z,9.90
2023-02-20T06:44:34.206Z,9.80
2023-02-20T06:47:03.149Z,9.70
2023-02-20T06:49:32.868Z,9.70
2023-02-20T06:52:04.025Z,9.70
2023-02-20T06:54:33.954Z,9.70
2023-02-20T06:57:02.681Z,9.70
2023-02-20T06:59:30.932Z,9.70
2023-02-20T07:01:59.838Z,9.70
2023-02-20T07:04:28.234Z,9.70
2023-02-20T07:06:59.652Z,9.70
2023-02-20T07:09:28.184Z,9.70
2023-02-20T07:11:57.395Z,9.60
2023-02-20T07:14:26.167Z,9.70
2023-02-20T07:16:54.441Z,9.60
2023-02-20T07:19:22.710Z,9.60
2023-02-20T07:21:51.341Z,9.60
2023-02-20T07:24:21.073Z,10.00
2023-02-20T07:26:49.872Z,9.70
2023-02-20T07:29:18.302Z,9.70
2023-02-20T07:31:47.780Z,9.70
2023-02-20T07:34:16.209Z,9.70
2023-02-20T07:36:45.041Z,9.70
2023-02-20T07:39:14.398Z,9.70
2023-02-20T07:41:44.180Z,9.70
2023-02-20T07:44:33.159Z,9.70
2023-02-20T07:47:02.022Z,9.70
2023-02-20T07:49:30.827Z,10.10
2023-02-20T07:51:59.298Z,9.70
2023-02-20T07:54:28.357Z,9.70
2023-02-20T07:57:22.788Z,9.70
2023-02-20T07:59:57.137Z,9.70
2023-02-20T08:02:25.729Z,9.70
2023-02-20T08:04:54.256Z,9.70
2023-02-20T08:07:22.602Z,9.70
2023-02-20T08:09:50.935Z,9.70
2023-02-20T08:12:19.347Z,9.70
2023-02-20T08:14:51.173Z,9.80
2023-02-20T08:17:19.552Z,9.80
2023-02-20T08:19:48.311Z,9.70
2023-02-20T08:22:16.755Z,9.70
2023-02-20T08:24:45.080Z,9.80
2023-02-20T08:27:13.547Z,9.80
2023-02-20T08:29:41.915Z,9.70
2023-02-20T08:32:13.655Z,9.80
2023-02-20T08:34:43.455Z,9.70
2023-02-20T08:37:12.013Z,9.70
2023-02-20T08:39:40.514Z,9.80
2023-02-20T08:42:09.090Z,9.80
2023-02-20T08:44:37.593Z,9.80
2023-02-20T08:47:06.208Z,9.80
2023-02-20T08:49:36.158Z,9.80
2023-02-20T08:52:05.851Z,9.80
2023-02-20T08:54:34.248Z,9.90
2023-02-20T08:57:02.643Z,9.80
2023-02-20T08:59:33.209Z,9.80
2023-02-20T09:02:01.760Z,9.90
2023-02-20T09:04:30.034Z,9.80
2023-02-20T09:07:00.170Z,9.80
2023-02-20T09:09:30.170Z,9.80
2023-02-20T09:11:58.705Z,9.80
2023-02-20T09:14:27.450Z,9.80
2023-02-20T09:16:55.833Z,9.80
2023-02-20T09:19:24.866Z,9.80
2023-02-20T09:21:53.378Z,9.90
2023-02-20T09:24:23.111Z,9.90
2023-02-20T09:26:51.556Z,9.90
2023-02-20T09:29:19.879Z,9.90
2023-02-20T09:31:48.398Z,9.90
2023-02-20T09:34:16.918Z,9.90
2023-02-20T09:36:45.218Z,9.90
2023-02-20T09:39:17.718Z,9.90
2023-02-20T09:42:05.799Z,9.90
2023-02-20T09:44:40.034Z,9.90
2023-02-20T09:47:26.264Z,9.90
2023-02-20T09:49:57.907Z,9.90
2023-02-20T09:52:26.962Z,9.90
2023-02-20T09:55:03.413Z,9.90
2023-02-20T09:57:36.301Z,9.90
2023-02-20T10:00:09.936Z,10.00
2023-02-20T10:02:42.221Z,10.00
2023-02-20T10:05:19.455Z,10.00
2023-02-20T10:07:50.234Z,10.00
2023-02-20T10:10:21.979Z,10.00
2023-02-20T10:13:01.437Z,10.00
2023-02-20T10:15:38.765Z,10.00
2023-02-20T10:18:21.579Z,10.00
2023-02-20T10:20:58.271Z,10.10
2023-02-20T10:23:38.094Z,10.00
2023-02-20T10:26:09.882Z,10.10
2023-02-20T10:28:40.999Z,10.10
2023-02-20T10:31:23.656Z,10.10
2023-02-20T10:33:55.585Z,10.10
2023-02-20T10:36:30.871Z,10.10
2023-02-20T10:39:04.275Z,10.10
2023-02-20T10:41:36.638Z,10.10
2023-02-20T10:44:17.527Z,10.10
2023-02-20T10:46:53.778Z,10.10
2023-02-20T10:49:31.503Z,10.20
2023-02-20T10:52:01.895Z,10.20
2023-02-20T10:54:36.307Z,10.20
2023-02-20T10:57:10.893Z,10.20
2023-02-20T10:59:46.709Z,10.20
2023-02-20T11:02:20.021Z,10.20
2023-02-20T11:04:54.678Z,10.20
2023-02-20T11:07:23.909Z,10.20
2023-02-20T11:09:52.389Z,10.20
2023-02-20T11:12:27.764Z,10.20
2023-02-20T11:15:00.854Z,10.20
2023-02-20T11:17:31.603Z,10.20
2023-02-20T11:20:01.446Z,10.30
2023-02-20T11:22:44.922Z,10.20
2023-02-20T11:25:19.843Z,10.30
2023-02-20T11:27:50.974Z,10.30
2023-02-20T11:30:31.200Z,10.30
2023-02-20T11:33:05.417Z,10.30
2023-02-20T11:35:37.862Z,10.30
2023-02-20T11:38:29.125Z,10.30
2023-02-20T11:41:29.206Z,10.30
2023-02-20T11:44:23.156Z,10.30
2023-02-20T11:47:18.238Z,10.30
2023-02-20T11:49:46.826Z,10.40
2023-02-20T11:52:21.899Z,10.30
2023-02-20T11:55:09.567Z,10.30
2023-02-20T11:57:43.475Z,10.30
2023-02-20T12:00:17.482Z,10.30
2023-02-20T12:02:56.374Z,10.30
2023-02-20T12:05:39.156Z,10.30
2023-02-20T12:08:41.278Z,10.30
2023-02-20T12:11:12.661Z,10.30
2023-02-20T12:13:42.914Z,10.40
2023-02-20T12:16:31.377Z,10.30
2023-02-20T12:19:07.922Z,10.30
2023-02-20T12:21:50.649Z,10.30
2023-02-20T12:24:40.940Z,10.30
2023-02-20T12:27:33.356Z,10.30
2023-02-20T12:30:12.066Z,10.30
2023-02-20T12:32:51.604Z,10.30
2023-02-20T12:35:30.682Z,10.30
2023-02-20T12:38:15.956Z,10.40
2023-02-20T12:41:09.998Z,10.40
2023-02-20T12:43:46.968Z,10.30
2023-02-20T12:46:22.753Z,10.30
2023-02-20T12:49:10.524Z,10.30
2023-02-20T12:51:46.728Z,10.40
2023-02-20T12:54:26.353Z,10.40
2023-02-20T12:57:05.723Z,10.40
2023-02-20T12:59:41.076Z,10.40
2023-02-20T13:02:21.060Z,10.40
2023-02-20T13:04:55.233Z,10.40
2023-02-20T13:07:31.434Z,10.40
2023-02-20T13:10:05.659Z,10.40
2023-02-20T13:12:33.982Z,10.40
2023-02-20T13:15:20.959Z,10.40
2023-02-20T13:17:57.872Z,10.40
2023-02-20T13:20:28.542Z,10.40
2023-02-20T13:23:03.536Z,10.40
2023-02-20T13:25:46.112Z,10.40
2023-02-20T13:28:27.938Z,10.40
2023-02-20T13:31:10.899Z,10.40
2023-02-20T13:33:40.559Z,10.70
2023-02-20T13:36:19.425Z,10.40
2023-02-20T13:39:25.587Z,10.40
2023-02-20T13:42:04.639Z,10.40
2023-02-20T13:44:51.845Z,10.50
2023-02-20T13:47:39.685Z,10.40
2023-02-20T13:50:34.115Z,10.40
2023-02-20T13:53:06.341Z,10.40
2023-02-20T13:55:35.444Z,10.50
2023-02-20T13:58:11.214Z,10.50
2023-02-20T14:00:48.694Z,10.50
2023-02-20T14:03:22.406Z,10.50
2023-02-20T14:06:03.672Z,10.50
2023-02-20T14:08:32.134Z,10.50
2023-02-20T14:11:07.403Z,10.50
2023-02-20T14:13:40.980Z,10.40
2023-02-20T14:16:26.177Z,10.40
2023-02-20T14:18:59.101Z,10.40
2023-02-20T14:21:27.707Z,10.40
2023-02-20T14:23:56.407Z,10.40
2023-02-20T14:26:26.960Z,10.50
2023-02-20T14:28:58.913Z,10.50
2023-02-20T14:31:29.164Z,10.40
2023-02-20T14:33:59.242Z,10.40
2023-02-20T14:36:45.224Z,10.40
2023-02-20T14:39:27.169Z,10.40
2023-02-20T14:41:57.907Z,10.40
2023-02-20T14:44:29.280Z,10.40
2023-02-20T14:47:03.825Z,10.40
2023-02-20T14:49:32.698Z,10.40
2023-02-20T14:52:22.530Z,10.40
2023-02-20T14:55:00.340Z,10.40
2023-02-20T14:57:29.051Z,10.40
2023-02-20T15:00:26.240Z,10.40
2023-02-20T15:02:56.966Z,10.40
2023-02-20T15:05:30.647Z,10.50
2023-02-20T15:08:05.268Z,10.50
2023-02-20T15:10:38.741Z,10.50
2023-02-20T15:13:10.318Z,10.50
2023-02-20T15:15:42.237Z,10.50
2023-02-20T15:18:14.266Z,10.40
2023-02-20T15:20:44.149Z,10.50
2023-02-20T15:23:30.862Z,10.50
2023-02-20T15:26:00.420Z,10.50
2023-02-20T15:28:31.214Z,10.50
2023-02-20T15:31:23.093Z,10.50
2023-02-20T15:33:53.670Z,10.50
2023-02-20T15:36:25.551Z,10.50
2023-02-20T15:38:55.408Z,10.50
2023-02-20T15:41:24.982Z,10.50
2023-02-20T15:43:53.432Z,10.50
2023-02-20T15:46:23.938Z,10.50
2023-02-20T15:48:52.349Z,10.50
2023-02-20T15:51:23.378Z,10.50
2023-02-20T15:53:54.138Z,10.50
2023-02-20T15:56:23.081Z,10.50
2023-02-20T15:58:52.669Z,10.50
2023-02-20T16:01:22.764Z,10.50
2023-02-20T16:03:53.384Z,10.50
2023-02-20T16:06:23.679Z,10.50
2023-02-20T16:08:53.117Z,10.50
2023-02-20T16:11:24.224Z,10.50
2023-02-20T16:13:56.353Z,10.50
2023-02-20T16:16:32.622Z,10.50
2023-02-20T16:19:01.144Z,10.50
2023-02-20T16:21:29.968Z,10.50
2023-02-20T16:23:58.474Z,10.50
2023-02-20T16:26:29.940Z,10.50
2023-02-20T16:29:01.100Z,10.50
2023-02-20T16:32:33.146Z,10.50
2023-02-20T16:35:02.578Z,10.60
2023-02-20T16:37:32.517Z,10.60
2023-02-20T16:40:00.874Z,10.50
2023-02-20T16:42:34.717Z,10.60
2023-02-20T16:45:06.934Z,10.60
2023-02-20T16:47:36.775Z,10.60
2023-02-20T16:50:07.993Z,10.60
2023-02-20T16:52:38.957Z,10.60
2023-02-20T16:55:09.520Z,10.60
2023-02-20T16:57:37.963Z,10.60
2023-02-20T17:00:06.889Z,10.60
2023-02-20T17:02:36.593Z,10.60
2023-02-20T17:05:05.579Z,10.60
2023-02-20T17:07:34.670Z,10.60
2023-02-20T17:10:03.037Z,10.60
2023-02-20T17:12:33.883Z,10.70
2023-02-20T17:15:02.920Z,10.70
2023-02-20T17:17:33.145Z,10.70
2023-02-20T17:20:03.731Z,10.70
2023-02-20T17:22:32.185Z,10.70
2023-02-20T17:25:00.597Z,10.70
2023-02-20T17:27:28.990Z,10.70
2023-02-20T17:29:58.140Z,10.70
2023-02-20T17:32:28.312Z,10.70
2023-02-20T17:34:56.807Z,10.70
2023-02-20T17:37:30.392Z,10.70
2023-02-20T17:39:58.933Z,10.60
2023-02-20T17:42:28.067Z,10.70
2023-02-20T17:44:57.070Z,10.70
2023-02-20T17:47:25.840Z,10.70
2023-02-20T17:49:56.436Z,10.70
2023-02-20T17:52:26.496Z,10.70
2023-02-20T17:54:56.153Z,10.70
2023-02-20T17:57:24.744Z,10.70
2023-02-20T17:59:53.354Z,10.70
2023-02-20T18:02:21.836Z,10.70
2023-02-20T18:04:50.199Z,10.70
2023-02-20T18:07:18.642Z,10.70
2023-02-20T18:09:48.382Z,10.70
2023-02-20T18:12:17.990Z,10.70
2023-02-20T18:14:46.690Z,10.70
2023-02-20T18:17:15.113Z,10.70
2023-02-20T18:19:43.426Z,10.70
2023-02-20T18:22:11.789Z,10.80
2023-02-20T18:24:40.233Z,10.70
2023-02-20T18:27:10.467Z,10.80
2023-02-20T18:29:39.924Z,10.80
2023-02-20T18:32:09.240Z,10.70
2023-02-20T18:34:37.602Z,10.80
2023-02-20T18:37:06.338Z,10.70
2023-02-20T18:39:35.263Z,10.80
2023-02-20T18:42:03.843Z,10.80
2023-02-20T18:44:33.640Z,10.80
2023-02-20T18:47:02.228Z,10.80
2023-02-20T18:49:30.728Z,10.50
2023-02-20T18:51:59.051Z,10.80
2023-02-20T18:54:32.925Z,10.80
2023-02-20T18:57:02.758Z,10.80
2023-02-20T18:59:31.965Z,10.80
2023-02-20T19:02:05.828Z,10.80
2023-02-20T19:04:34.381Z,10.80
2023-02-20T19:07:03.709Z,10.80
2023-02-20T19:09:36.789Z,10.80
2023-02-20T19:12:07.784Z,10.80
2023-02-20T19:14:36.433Z,10.80
2023-02-20T19:17:07.877Z,10.80
2023-02-20T19:19:36.233Z,10.80
2023-02-20T19:22:05.024Z,10.90
2023-02-20T19:24:33.702Z,10.80
2023-02-20T19:27:02.047Z,10.60
2023-02-20T19:29:30.428Z,10.80
2023-02-20T19:32:00.304Z,10.80
2023-02-20T19:34:30.147Z,10.80
2023-02-20T19:36:58.487Z,10.80
2023-02-20T19:39:28.433Z,10.80
2023-02-20T19:41:56.893Z,10.90
2023-02-20T19:44:25.396Z,10.80
2023-02-20T19:46:54.364Z,10.90
2023-02-20T19:49:23.514Z,10.80
2023-02-20T19:51:55.058Z,10.80
2023-02-20T19:54:25.156Z,10.80
2023-02-20T19:56:56.249Z,10.80
2023-02-20T19:59:24.658Z,10.80
2023-02-20T20:01:54.578Z,10.80
2023-02-20T20:04:25.095Z,10.80
2023-02-20T20:06:55.340Z,10.80
2023-02-20T20:09:35.604Z,10.80
2023-02-20T20:12:04.717Z,10.80
2023-02-20T20:14:33.412Z,10.80
2023-02-20T20:17:03.276Z,10.90
2023-02-20T20:19:32.576Z,10.80
2023-02-20T20:22:02.277Z,10.80
2023-02-20T20:24:30.842Z,10.80
2023-02-20T20:26:59.343Z,10.80
2023-02-20T20:29:27.980Z,10.80
2023-02-20T20:31:56.338Z,10.80
2023-02-20T20:34:25.259Z,10.80
2023-02-20T20:36:53.770Z,10.80
2023-02-20T20:39:23.680Z,10.80
2023-02-20T20:41:52.315Z,10.80
2023-02-20T20:44:23.852Z,10.50
2023-02-20T20:46:52.389Z,10.80
2023-02-20T20:49:20.895Z,10.80
2023-02-20T20:51:49.437Z,10.80
2023-02-20T20:54:17.787Z,10.80
2023-02-20T20:56:48.545Z,10.80
2023-02-20T20:59:17.744Z,10.80
2023-02-20T21:01:46.440Z,10.80
2023-02-20T21:04:15.110Z,10.80
2023-02-20T21:06:46.569Z,10.80
2023-02-20T21:09:14.969Z,10.80
2023-02-20T21:11:47.526Z,10.80
2023-02-20T21:14:16.132Z,10.80
2023-02-20T21:16:47.019Z,10.80
2023-02-20T21:19:17.617Z,10.80
2023-02-20T21:21:46.711Z,10.80
2023-02-20T21:24:15.052Z,10.80
2023-02-20T21:26:43.331Z,10.80
2023-02-20T21:29:13.179Z,10.80
2023-02-20T21:31:42.964Z,10.80
2023-02-20T21:34:12.263Z,10.80
2023-02-20T21:36:42.170Z,10.80
2023-02-20T21:39:10.683Z,10.80
2023-02-20T21:41:56.145Z,10.80
2023-02-20T21:44:29.650Z,10.80
2023-02-20T21:46:59.828Z,10.80
2023-02-20T21:49:29.267Z,10.80
2023-02-20T21:51:58.338Z,10.80
2023-02-20T21:54:29.351Z,11.10
2023-02-20T21:56:58.136Z,10.80
2023-02-20T21:59:26.947Z,10.80
2023-02-20T22:01:54.510Z,10.80
2023-02-20T22:04:21.765Z,10.80
2023-02-20T22:07:08.730Z,10.80
2023-02-20T22:09:55.038Z,10.80
2023-02-20T22:12:40.938Z,10.80
2023-02-20T22:15:30.456Z,10.80
2023-02-20T22:18:16.091Z,10.80
2023-02-20T22:21:01.548Z,10.80
2023-02-20T22:23:47.440Z,10.80
2023-02-20T22:26:33.896Z,10.80
2023-02-20T22:29:19.579Z,10.80
2023-02-20T22:32:07.059Z,10.80
2023-02-20T22:35:05.771Z,10.80
2023-02-20T22:37:57.167Z,10.80
2023-02-20T22:40:43.323Z,10.80
2023-02-20T22:43:29.438Z,10.50
2023-02-20T22:46:15.174Z,10.80
2023-02-20T22:49:02.532Z,10.80
2023-02-20T22:51:48.504Z,10.80
2023-02-20T22:54:34.704Z,10.80
2023-02-20T22:57:20.774Z,10.80
2023-02-20T23:00:06.573Z,10.80
2023-02-20T23:02:52.697Z,10.80
2023-02-20T23:05:39.853Z,10.80
2023-02-20T23:08:25.927Z,10.80
2023-02-20T23:11:11.694Z,10.80
2023-02-20T23:13:57.623Z,10.80
2023-02-20T23:16:44.148Z,10.80
2023-02-20T23:19:30.593Z,10.80
2023-02-20T23:22:17.956Z,10.80
2023-02-20T23:25:03.404Z,10.80
2023-02-20T23:27:49.135Z,10.80
2023-02-20T23:30:35.162Z,10.80
2023-02-20T23:33:20.811Z,10.80
2023-02-20T23:36:06.998Z,10.80
2023-02-20T23:38:54.211Z,10.80
2023-02-20T23:41:39.815Z,10.80
2023-02-20T23:44:25.994Z,10.80
2023-02-20T23:47:11.621Z,10.80
2023-02-20T23:49:57.484Z,10.80
2023-02-20T23:52:42.977Z,10.80
2023-02-20T23:55:30.200Z,10.70
2023-02-20T23:58:16.158Z,10.70
